<?xml version="1.0" encoding="UTF-8" standalone="no" ?>
<gpx xmlns="http://www.topografix.com/GPX/1/1" xmlns:xsi="http://www.w3.org/2001/XMLSchema-instance" xsi:schemaLocation="http://www.topografix.com/GPX/1/1 http://www.topografix.com/GPX/1/1/gpx.xsd" version="1.1" creator="VisuGPX - https://www.visugpx.com">
  <metadata>
    <name>Nocturne Faumont 2025 : 23 km  découverte</name>
    <desc><![CDATA[Parcours découverte de 23 km de la Nocturne VTT de Faumont 2025]]></desc>
  </metadata>
  <trk>
    <name><![CDATA[Nocturne Faumont 2025 - 23 km découverte familial-20426237]]></name>
    <trkseg>
      <trkpt lat="50.4576" lon="3.13742">
        <ele>41</ele>
        <time>2025-05-25T13:10:45Z</time>
      </trkpt>
      <trkpt lat="50.45757" lon="3.13678">
        <ele>42</ele>
        <time>2025-05-25T13:10:55Z</time>
      </trkpt>
      <trkpt lat="50.46161" lon="3.1369">
        <ele>37</ele>
        <time>2025-05-25T13:12:29Z</time>
      </trkpt>
      <trkpt lat="50.46206" lon="3.137">
        <ele>36</ele>
        <time>2025-05-25T13:12:40Z</time>
      </trkpt>
      <trkpt lat="50.46229" lon="3.13715">
        <ele>36</ele>
        <time>2025-05-25T13:12:45Z</time>
      </trkpt>
      <trkpt lat="50.4625" lon="3.13702">
        <ele>35</ele>
        <time>2025-05-25T13:12:51Z</time>
      </trkpt>
      <trkpt lat="50.46301" lon="3.13706">
        <ele>35</ele>
        <time>2025-05-25T13:13:03Z</time>
      </trkpt>
      <trkpt lat="50.4635" lon="3.13048">
        <ele>35</ele>
        <time>2025-05-25T13:14:41Z</time>
      </trkpt>
      <trkpt lat="50.46364" lon="3.12971">
        <ele>34</ele>
        <time>2025-05-25T13:14:53Z</time>
      </trkpt>
      <trkpt lat="50.46392" lon="3.12893">
        <ele>34</ele>
        <time>2025-05-25T13:15:06Z</time>
      </trkpt>
      <trkpt lat="50.46573" lon="3.12583">
        <ele>34</ele>
        <time>2025-05-25T13:16:09Z</time>
      </trkpt>
      <trkpt lat="50.46624" lon="3.12465">
        <ele>34</ele>
        <time>2025-05-25T13:16:30Z</time>
      </trkpt>
      <trkpt lat="50.46759" lon="3.11713">
        <ele>38</ele>
        <time>2025-05-25T13:18:26Z</time>
      </trkpt>
      <trkpt lat="50.46752" lon="3.1147">
        <ele>37</ele>
        <time>2025-05-25T13:19:02Z</time>
      </trkpt>
      <trkpt lat="50.46771" lon="3.1137">
        <ele>39</ele>
        <time>2025-05-25T13:19:18Z</time>
      </trkpt>
      <trkpt lat="50.46802" lon="3.11277">
        <ele>39</ele>
        <time>2025-05-25T13:19:33Z</time>
      </trkpt>
      <trkpt lat="50.46758" lon="3.11286">
        <ele>39</ele>
        <time>2025-05-25T13:19:44Z</time>
      </trkpt>
      <trkpt lat="50.46648" lon="3.11303">
        <ele>36</ele>
        <time>2025-05-25T13:20:10Z</time>
      </trkpt>
      <trkpt lat="50.46705" lon="3.10845">
        <ele>42</ele>
        <time>2025-05-25T13:21:19Z</time>
      </trkpt>
      <trkpt lat="50.46759" lon="3.10835">
        <ele>44</ele>
        <time>2025-05-25T13:21:32Z</time>
      </trkpt>
      <trkpt lat="50.46765" lon="3.10768">
        <ele>45</ele>
        <time>2025-05-25T13:21:42Z</time>
      </trkpt>
      <trkpt lat="50.46803" lon="3.10671">
        <ele>42</ele>
        <time>2025-05-25T13:21:59Z</time>
      </trkpt>
      <trkpt lat="50.46777" lon="3.10559">
        <ele>40</ele>
        <time>2025-05-25T13:22:16Z</time>
      </trkpt>
      <trkpt lat="50.46777" lon="3.10462">
        <ele>40</ele>
        <time>2025-05-25T13:22:31Z</time>
      </trkpt>
      <trkpt lat="50.46732" lon="3.10172">
        <ele>41</ele>
        <time>2025-05-25T13:23:15Z</time>
      </trkpt>
      <trkpt lat="50.46768" lon="3.10035">
        <ele>43</ele>
        <time>2025-05-25T13:23:37Z</time>
      </trkpt>
      <trkpt lat="50.4681" lon="3.09943">
        <ele>43</ele>
        <time>2025-05-25T13:23:54Z</time>
      </trkpt>
      <trkpt lat="50.46896" lon="3.098">
        <ele>46</ele>
        <time>2025-05-25T13:24:23Z</time>
      </trkpt>
      <trkpt lat="50.46937" lon="3.09711">
        <ele>46</ele>
        <time>2025-05-25T13:24:40Z</time>
      </trkpt>
      <trkpt lat="50.4698" lon="3.09726">
        <ele>47</ele>
        <time>2025-05-25T13:24:50Z</time>
      </trkpt>
      <trkpt lat="50.47151" lon="3.09833">
        <ele>51</ele>
        <time>2025-05-25T13:25:33Z</time>
      </trkpt>
      <trkpt lat="50.4729" lon="3.09958">
        <ele>56</ele>
        <time>2025-05-25T13:26:10Z</time>
      </trkpt>
      <trkpt lat="50.47459" lon="3.09957">
        <ele>64</ele>
        <time>2025-05-25T13:26:50Z</time>
      </trkpt>
      <trkpt lat="50.47415" lon="3.09378">
        <ele>60</ele>
        <time>2025-05-25T13:28:16Z</time>
      </trkpt>
      <trkpt lat="50.4765" lon="3.08779">
        <ele>54</ele>
        <time>2025-05-25T13:30:01Z</time>
      </trkpt>
      <trkpt lat="50.47824" lon="3.08462">
        <ele>53</ele>
        <time>2025-05-25T13:31:03Z</time>
      </trkpt>
      <trkpt lat="50.4803" lon="3.0828">
        <ele>53</ele>
        <time>2025-05-25T13:31:58Z</time>
      </trkpt>
      <trkpt lat="50.48068" lon="3.08157">
        <ele>48</ele>
        <time>2025-05-25T13:32:19Z</time>
      </trkpt>
      <trkpt lat="50.48082" lon="3.08006">
        <ele>49</ele>
        <time>2025-05-25T13:32:41Z</time>
      </trkpt>
      <trkpt lat="50.48009" lon="3.077">
        <ele>48</ele>
        <time>2025-05-25T13:33:30Z</time>
      </trkpt>
      <trkpt lat="50.47935" lon="3.07435">
        <ele>49</ele>
        <time>2025-05-25T13:34:13Z</time>
      </trkpt>
      <trkpt lat="50.47898" lon="3.07054">
        <ele>51</ele>
        <time>2025-05-25T13:35:10Z</time>
      </trkpt>
      <trkpt lat="50.47892" lon="3.06848">
        <ele>59</ele>
        <time>2025-05-25T13:35:41Z</time>
      </trkpt>
      <trkpt lat="50.47875" lon="3.06692">
        <ele>59</ele>
        <time>2025-05-25T13:36:04Z</time>
      </trkpt>
      <trkpt lat="50.47849" lon="3.06604">
        <ele>56</ele>
        <time>2025-05-25T13:36:19Z</time>
      </trkpt>
      <trkpt lat="50.47713" lon="3.06365">
        <ele>53</ele>
        <time>2025-05-25T13:37:06Z</time>
      </trkpt>
      <trkpt lat="50.47675" lon="3.06229">
        <ele>55</ele>
        <time>2025-05-25T13:37:28Z</time>
      </trkpt>
      <trkpt lat="50.4763" lon="3.0599">
        <ele>58</ele>
        <time>2025-05-25T13:38:06Z</time>
      </trkpt>
      <trkpt lat="50.47464" lon="3.06232">
        <ele>61</ele>
        <time>2025-05-25T13:38:58Z</time>
      </trkpt>
      <trkpt lat="50.47413" lon="3.06297">
        <ele>61</ele>
        <time>2025-05-25T13:39:14Z</time>
      </trkpt>
      <trkpt lat="50.4709" lon="3.06783">
        <ele>64</ele>
        <time>2025-05-25T13:40:58Z</time>
      </trkpt>
      <trkpt lat="50.471" lon="3.06798">
        <ele>64</ele>
        <time>2025-05-25T13:41:01Z</time>
      </trkpt>
      <trkpt lat="50.46974" lon="3.06991">
        <ele>66</ele>
        <time>2025-05-25T13:41:43Z</time>
      </trkpt>
      <trkpt lat="50.46903" lon="3.07051">
        <ele>66</ele>
        <time>2025-05-25T13:42:01Z</time>
      </trkpt>
      <trkpt lat="50.4681" lon="3.0722">
        <ele>65</ele>
        <time>2025-05-25T13:42:35Z</time>
      </trkpt>
      <trkpt lat="50.4663" lon="3.06898">
        <ele>69</ele>
        <time>2025-05-25T13:43:38Z</time>
      </trkpt>
      <trkpt lat="50.46611" lon="3.06798">
        <ele>73</ele>
        <time>2025-05-25T13:43:54Z</time>
      </trkpt>
      <trkpt lat="50.46589" lon="3.06752">
        <ele>75</ele>
        <time>2025-05-25T13:44:02Z</time>
      </trkpt>
      <trkpt lat="50.46562" lon="3.06774">
        <ele>74</ele>
        <time>2025-05-25T13:44:09Z</time>
      </trkpt>
      <trkpt lat="50.46529" lon="3.06782">
        <ele>72</ele>
        <time>2025-05-25T13:44:17Z</time>
      </trkpt>
      <trkpt lat="50.46519" lon="3.06794">
        <ele>72</ele>
        <time>2025-05-25T13:44:20Z</time>
      </trkpt>
      <trkpt lat="50.46508" lon="3.06792">
        <ele>71</ele>
        <time>2025-05-25T13:44:23Z</time>
      </trkpt>
      <trkpt lat="50.46492" lon="3.06762">
        <ele>71</ele>
        <time>2025-05-25T13:44:29Z</time>
      </trkpt>
      <trkpt lat="50.46476" lon="3.06762">
        <ele>71</ele>
        <time>2025-05-25T13:44:32Z</time>
      </trkpt>
      <trkpt lat="50.46453" lon="3.06726">
        <ele>70</ele>
        <time>2025-05-25T13:44:40Z</time>
      </trkpt>
      <trkpt lat="50.46435" lon="3.06686">
        <ele>70</ele>
        <time>2025-05-25T13:44:47Z</time>
      </trkpt>
      <trkpt lat="50.46328" lon="3.06494">
        <ele>70</ele>
        <time>2025-05-25T13:45:25Z</time>
      </trkpt>
      <trkpt lat="50.46296" lon="3.06454">
        <ele>70</ele>
        <time>2025-05-25T13:45:35Z</time>
      </trkpt>
      <trkpt lat="50.46271" lon="3.06391">
        <ele>71</ele>
        <time>2025-05-25T13:45:46Z</time>
      </trkpt>
      <trkpt lat="50.46252" lon="3.06367">
        <ele>72</ele>
        <time>2025-05-25T13:45:51Z</time>
      </trkpt>
      <trkpt lat="50.46232" lon="3.06354">
        <ele>72</ele>
        <time>2025-05-25T13:45:56Z</time>
      </trkpt>
      <trkpt lat="50.46217" lon="3.06362">
        <ele>71</ele>
        <time>2025-05-25T13:46:00Z</time>
      </trkpt>
      <trkpt lat="50.46143" lon="3.06437">
        <ele>67</ele>
        <time>2025-05-25T13:46:21Z</time>
      </trkpt>
      <trkpt lat="50.46121" lon="3.06466">
        <ele>67</ele>
        <time>2025-05-25T13:46:27Z</time>
      </trkpt>
      <trkpt lat="50.46107" lon="3.06463">
        <ele>67</ele>
        <time>2025-05-25T13:46:31Z</time>
      </trkpt>
      <trkpt lat="50.46074" lon="3.06503">
        <ele>67</ele>
        <time>2025-05-25T13:46:40Z</time>
      </trkpt>
      <trkpt lat="50.46054" lon="3.06538">
        <ele>67</ele>
        <time>2025-05-25T13:46:47Z</time>
      </trkpt>
      <trkpt lat="50.46011" lon="3.06603">
        <ele>67</ele>
        <time>2025-05-25T13:47:01Z</time>
      </trkpt>
      <trkpt lat="50.45989" lon="3.06631">
        <ele>67</ele>
        <time>2025-05-25T13:47:08Z</time>
      </trkpt>
      <trkpt lat="50.45973" lon="3.06644">
        <ele>67</ele>
        <time>2025-05-25T13:47:12Z</time>
      </trkpt>
      <trkpt lat="50.45954" lon="3.06667">
        <ele>67</ele>
        <time>2025-05-25T13:47:18Z</time>
      </trkpt>
      <trkpt lat="50.45931" lon="3.06676">
        <ele>68</ele>
        <time>2025-05-25T13:47:23Z</time>
      </trkpt>
      <trkpt lat="50.4591" lon="3.06678">
        <ele>68</ele>
        <time>2025-05-25T13:47:28Z</time>
      </trkpt>
      <trkpt lat="50.45891" lon="3.06672">
        <ele>68</ele>
        <time>2025-05-25T13:47:33Z</time>
      </trkpt>
      <trkpt lat="50.45876" lon="3.06658">
        <ele>68</ele>
        <time>2025-05-25T13:47:37Z</time>
      </trkpt>
      <trkpt lat="50.45861" lon="3.06667">
        <ele>67</ele>
        <time>2025-05-25T13:47:41Z</time>
      </trkpt>
      <trkpt lat="50.45854" lon="3.06697">
        <ele>66</ele>
        <time>2025-05-25T13:47:45Z</time>
      </trkpt>
      <trkpt lat="50.45864" lon="3.0676">
        <ele>65</ele>
        <time>2025-05-25T13:47:55Z</time>
      </trkpt>
      <trkpt lat="50.45851" lon="3.06796">
        <ele>65</ele>
        <time>2025-05-25T13:48:01Z</time>
      </trkpt>
      <trkpt lat="50.4582" lon="3.06838">
        <ele>63</ele>
        <time>2025-05-25T13:48:11Z</time>
      </trkpt>
      <trkpt lat="50.45766" lon="3.06902">
        <ele>63</ele>
        <time>2025-05-25T13:48:27Z</time>
      </trkpt>
      <trkpt lat="50.457" lon="3.06934">
        <ele>63</ele>
        <time>2025-05-25T13:48:43Z</time>
      </trkpt>
      <trkpt lat="50.45613" lon="3.06949">
        <ele>63</ele>
        <time>2025-05-25T13:49:03Z</time>
      </trkpt>
      <trkpt lat="50.45626" lon="3.07022">
        <ele>63</ele>
        <time>2025-05-25T13:49:14Z</time>
      </trkpt>
      <trkpt lat="50.45635" lon="3.07056">
        <ele>64</ele>
        <time>2025-05-25T13:49:20Z</time>
      </trkpt>
      <trkpt lat="50.45472" lon="3.07176">
        <ele>67</ele>
        <time>2025-05-25T13:50:02Z</time>
      </trkpt>
      <trkpt lat="50.45541" lon="3.07353">
        <ele>67</ele>
        <time>2025-05-25T13:50:33Z</time>
      </trkpt>
      <trkpt lat="50.45593" lon="3.07545">
        <ele>68</ele>
        <time>2025-05-25T13:51:04Z</time>
      </trkpt>
      <trkpt lat="50.45633" lon="3.07553">
        <ele>67</ele>
        <time>2025-05-25T13:51:13Z</time>
      </trkpt>
      <trkpt lat="50.45666" lon="3.07702">
        <ele>68</ele>
        <time>2025-05-25T13:51:37Z</time>
      </trkpt>
      <trkpt lat="50.45666" lon="3.07756">
        <ele>69</ele>
        <time>2025-05-25T13:51:45Z</time>
      </trkpt>
      <trkpt lat="50.45613" lon="3.0779">
        <ele>69</ele>
        <time>2025-05-25T13:51:58Z</time>
      </trkpt>
      <trkpt lat="50.45566" lon="3.07794">
        <ele>69</ele>
        <time>2025-05-25T13:52:09Z</time>
      </trkpt>
      <trkpt lat="50.45435" lon="3.07827">
        <ele>72</ele>
        <time>2025-05-25T13:52:40Z</time>
      </trkpt>
      <trkpt lat="50.45419" lon="3.07773">
        <ele>72</ele>
        <time>2025-05-25T13:52:49Z</time>
      </trkpt>
      <trkpt lat="50.45358" lon="3.07603">
        <ele>74</ele>
        <time>2025-05-25T13:53:18Z</time>
      </trkpt>
      <trkpt lat="50.45331" lon="3.07625">
        <ele>74</ele>
        <time>2025-05-25T13:53:25Z</time>
      </trkpt>
      <trkpt lat="50.45235" lon="3.07593">
        <ele>75</ele>
        <time>2025-05-25T13:53:48Z</time>
      </trkpt>
      <trkpt lat="50.45201" lon="3.0762">
        <ele>74</ele>
        <time>2025-05-25T13:53:57Z</time>
      </trkpt>
      <trkpt lat="50.45244" lon="3.0769">
        <ele>73</ele>
        <time>2025-05-25T13:54:11Z</time>
      </trkpt>
      <trkpt lat="50.45141" lon="3.07736">
        <ele>71</ele>
        <time>2025-05-25T13:54:36Z</time>
      </trkpt>
      <trkpt lat="50.45096" lon="3.07748">
        <ele>69</ele>
        <time>2025-05-25T13:54:47Z</time>
      </trkpt>
      <trkpt lat="50.45062" lon="3.0774">
        <ele>67</ele>
        <time>2025-05-25T13:54:55Z</time>
      </trkpt>
      <trkpt lat="50.45032" lon="3.07716">
        <ele>67</ele>
        <time>2025-05-25T13:55:03Z</time>
      </trkpt>
      <trkpt lat="50.44882" lon="3.07567">
        <ele>63</ele>
        <time>2025-05-25T13:55:44Z</time>
      </trkpt>
      <trkpt lat="50.44831" lon="3.07726">
        <ele>60</ele>
        <time>2025-05-25T13:56:11Z</time>
      </trkpt>
      <trkpt lat="50.44678" lon="3.07894">
        <ele>56</ele>
        <time>2025-05-25T13:56:54Z</time>
      </trkpt>
      <trkpt lat="50.44608" lon="3.07999">
        <ele>52</ele>
        <time>2025-05-25T13:57:17Z</time>
      </trkpt>
      <trkpt lat="50.44498" lon="3.08257">
        <ele>47</ele>
        <time>2025-05-25T13:58:03Z</time>
      </trkpt>
      <trkpt lat="50.44557" lon="3.08327">
        <ele>51</ele>
        <time>2025-05-25T13:58:20Z</time>
      </trkpt>
      <trkpt lat="50.44347" lon="3.08817">
        <ele>45</ele>
        <time>2025-05-25T13:59:48Z</time>
      </trkpt>
      <trkpt lat="50.44237" lon="3.0887">
        <ele>41</ele>
        <time>2025-05-25T14:00:15Z</time>
      </trkpt>
      <trkpt lat="50.44101" lon="3.08943">
        <ele>41</ele>
        <time>2025-05-25T14:00:49Z</time>
      </trkpt>
      <trkpt lat="50.44043" lon="3.09043">
        <ele>39</ele>
        <time>2025-05-25T14:01:09Z</time>
      </trkpt>
      <trkpt lat="50.43912" lon="3.09392">
        <ele>34</ele>
        <time>2025-05-25T14:02:09Z</time>
      </trkpt>
      <trkpt lat="50.43926" lon="3.09519">
        <ele>34</ele>
        <time>2025-05-25T14:02:28Z</time>
      </trkpt>
      <trkpt lat="50.43917" lon="3.09593">
        <ele>33</ele>
        <time>2025-05-25T14:02:39Z</time>
      </trkpt>
      <trkpt lat="50.43918" lon="3.09681">
        <ele>35</ele>
        <time>2025-05-25T14:02:52Z</time>
      </trkpt>
      <trkpt lat="50.43908" lon="3.09706">
        <ele>36</ele>
        <time>2025-05-25T14:02:57Z</time>
      </trkpt>
      <trkpt lat="50.43949" lon="3.09771">
        <ele>39</ele>
        <time>2025-05-25T14:03:10Z</time>
      </trkpt>
      <trkpt lat="50.43972" lon="3.09797">
        <ele>40</ele>
        <time>2025-05-25T14:03:17Z</time>
      </trkpt>
      <trkpt lat="50.4399" lon="3.09809">
        <ele>41</ele>
        <time>2025-05-25T14:03:22Z</time>
      </trkpt>
      <trkpt lat="50.44086" lon="3.09854">
        <ele>43</ele>
        <time>2025-05-25T14:03:45Z</time>
      </trkpt>
      <trkpt lat="50.44079" lon="3.09899">
        <ele>44</ele>
        <time>2025-05-25T14:03:52Z</time>
      </trkpt>
      <trkpt lat="50.44073" lon="3.09996">
        <ele>45</ele>
        <time>2025-05-25T14:04:06Z</time>
      </trkpt>
      <trkpt lat="50.4412" lon="3.10018">
        <ele>46</ele>
        <time>2025-05-25T14:04:18Z</time>
      </trkpt>
      <trkpt lat="50.44137" lon="3.10038">
        <ele>46</ele>
        <time>2025-05-25T14:04:23Z</time>
      </trkpt>
      <trkpt lat="50.44154" lon="3.10029">
        <ele>47</ele>
        <time>2025-05-25T14:04:27Z</time>
      </trkpt>
      <trkpt lat="50.44153" lon="3.10132">
        <ele>46</ele>
        <time>2025-05-25T14:04:42Z</time>
      </trkpt>
      <trkpt lat="50.44128" lon="3.10284">
        <ele>46</ele>
        <time>2025-05-25T14:05:06Z</time>
      </trkpt>
      <trkpt lat="50.44129" lon="3.10428">
        <ele>45</ele>
        <time>2025-05-25T14:05:27Z</time>
      </trkpt>
      <trkpt lat="50.44064" lon="3.10563">
        <ele>46</ele>
        <time>2025-05-25T14:05:52Z</time>
      </trkpt>
      <trkpt lat="50.4408" lon="3.10792">
        <ele>47</ele>
        <time>2025-05-25T14:06:27Z</time>
      </trkpt>
      <trkpt lat="50.44073" lon="3.10909">
        <ele>46</ele>
        <time>2025-05-25T14:06:44Z</time>
      </trkpt>
      <trkpt lat="50.44075" lon="3.10986">
        <ele>46</ele>
        <time>2025-05-25T14:06:56Z</time>
      </trkpt>
      <trkpt lat="50.44133" lon="3.11271">
        <ele>41</ele>
        <time>2025-05-25T14:07:40Z</time>
      </trkpt>
      <trkpt lat="50.44132" lon="3.11449">
        <ele>39</ele>
        <time>2025-05-25T14:08:06Z</time>
      </trkpt>
      <trkpt lat="50.44164" lon="3.11617">
        <ele>36</ele>
        <time>2025-05-25T14:08:33Z</time>
      </trkpt>
      <trkpt lat="50.44202" lon="3.11657">
        <ele>36</ele>
        <time>2025-05-25T14:08:43Z</time>
      </trkpt>
      <trkpt lat="50.4413" lon="3.1199">
        <ele>37</ele>
        <time>2025-05-25T14:09:36Z</time>
      </trkpt>
      <trkpt lat="50.43734" lon="3.11755">
        <ele>46</ele>
        <time>2025-05-25T14:11:14Z</time>
      </trkpt>
      <trkpt lat="50.43731" lon="3.11801">
        <ele>45</ele>
        <time>2025-05-25T14:11:21Z</time>
      </trkpt>
      <trkpt lat="50.43694" lon="3.11975">
        <ele>44</ele>
        <time>2025-05-25T14:11:49Z</time>
      </trkpt>
      <trkpt lat="50.4367" lon="3.12066">
        <ele>45</ele>
        <time>2025-05-25T14:12:03Z</time>
      </trkpt>
      <trkpt lat="50.43468" lon="3.12645">
        <ele>42</ele>
        <time>2025-05-25T14:13:41Z</time>
      </trkpt>
      <trkpt lat="50.43436" lon="3.12755">
        <ele>43</ele>
        <time>2025-05-25T14:13:59Z</time>
      </trkpt>
      <trkpt lat="50.43428" lon="3.12756">
        <ele>43</ele>
        <time>2025-05-25T14:14:01Z</time>
      </trkpt>
      <trkpt lat="50.434" lon="3.12723">
        <ele>42</ele>
        <time>2025-05-25T14:14:09Z</time>
      </trkpt>
      <trkpt lat="50.43383" lon="3.12714">
        <ele>42</ele>
        <time>2025-05-25T14:14:14Z</time>
      </trkpt>
      <trkpt lat="50.43381" lon="3.12797">
        <ele>42</ele>
        <time>2025-05-25T14:14:26Z</time>
      </trkpt>
      <trkpt lat="50.43376" lon="3.12869">
        <ele>43</ele>
        <time>2025-05-25T14:14:37Z</time>
      </trkpt>
      <trkpt lat="50.43343" lon="3.13078">
        <ele>43</ele>
        <time>2025-05-25T14:15:09Z</time>
      </trkpt>
      <trkpt lat="50.43302" lon="3.13264">
        <ele>42</ele>
        <time>2025-05-25T14:15:38Z</time>
      </trkpt>
      <trkpt lat="50.433" lon="3.13296">
        <ele>42</ele>
        <time>2025-05-25T14:15:43Z</time>
      </trkpt>
      <trkpt lat="50.43357" lon="3.13283">
        <ele>42</ele>
        <time>2025-05-25T14:15:56Z</time>
      </trkpt>
      <trkpt lat="50.43362" lon="3.13676">
        <ele>42</ele>
        <time>2025-05-25T14:16:55Z</time>
      </trkpt>
      <trkpt lat="50.43351" lon="3.13758">
        <ele>42</ele>
        <time>2025-05-25T14:17:07Z</time>
      </trkpt>
      <trkpt lat="50.43307" lon="3.13965">
        <ele>45</ele>
        <time>2025-05-25T14:17:40Z</time>
      </trkpt>
      <trkpt lat="50.43306" lon="3.13998">
        <ele>45</ele>
        <time>2025-05-25T14:17:45Z</time>
      </trkpt>
      <trkpt lat="50.43319" lon="3.14031">
        <ele>45</ele>
        <time>2025-05-25T14:17:50Z</time>
      </trkpt>
      <trkpt lat="50.4335" lon="3.14076">
        <ele>44</ele>
        <time>2025-05-25T14:18:00Z</time>
      </trkpt>
      <trkpt lat="50.43365" lon="3.14125">
        <ele>44</ele>
        <time>2025-05-25T14:18:08Z</time>
      </trkpt>
      <trkpt lat="50.4343" lon="3.14381">
        <ele>40</ele>
        <time>2025-05-25T14:18:49Z</time>
      </trkpt>
      <trkpt lat="50.43492" lon="3.14473">
        <ele>41</ele>
        <time>2025-05-25T14:19:09Z</time>
      </trkpt>
      <trkpt lat="50.43642" lon="3.14436">
        <ele>37</ele>
        <time>2025-05-25T14:19:45Z</time>
      </trkpt>
      <trkpt lat="50.43665" lon="3.14436">
        <ele>37</ele>
        <time>2025-05-25T14:19:50Z</time>
      </trkpt>
      <trkpt lat="50.43668" lon="3.14479">
        <ele>39</ele>
        <time>2025-05-25T14:19:57Z</time>
      </trkpt>
      <trkpt lat="50.43775" lon="3.14446">
        <ele>39</ele>
        <time>2025-05-25T14:20:22Z</time>
      </trkpt>
      <trkpt lat="50.43888" lon="3.14424">
        <ele>36</ele>
        <time>2025-05-25T14:20:49Z</time>
      </trkpt>
      <trkpt lat="50.439" lon="3.14439">
        <ele>36</ele>
        <time>2025-05-25T14:20:52Z</time>
      </trkpt>
      <trkpt lat="50.43902" lon="3.14628">
        <ele>39</ele>
        <time>2025-05-25T14:21:20Z</time>
      </trkpt>
      <trkpt lat="50.43926" lon="3.14845">
        <ele>40</ele>
        <time>2025-05-25T14:21:53Z</time>
      </trkpt>
      <trkpt lat="50.44119" lon="3.14675">
        <ele>32</ele>
        <time>2025-05-25T14:22:45Z</time>
      </trkpt>
      <trkpt lat="50.44131" lon="3.14605">
        <ele>32</ele>
        <time>2025-05-25T14:22:56Z</time>
      </trkpt>
      <trkpt lat="50.44166" lon="3.14597">
        <ele>33</ele>
        <time>2025-05-25T14:23:04Z</time>
      </trkpt>
      <trkpt lat="50.44172" lon="3.14521">
        <ele>32</ele>
        <time>2025-05-25T14:23:15Z</time>
      </trkpt>
      <trkpt lat="50.44104" lon="3.14521">
        <ele>32</ele>
        <time>2025-05-25T14:23:31Z</time>
      </trkpt>
      <trkpt lat="50.44096" lon="3.14378">
        <ele>32</ele>
        <time>2025-05-25T14:23:52Z</time>
      </trkpt>
      <trkpt lat="50.44229" lon="3.14358">
        <ele>31</ele>
        <time>2025-05-25T14:24:24Z</time>
      </trkpt>
      <trkpt lat="50.44496" lon="3.14312">
        <ele>31</ele>
        <time>2025-05-25T14:25:26Z</time>
      </trkpt>
      <trkpt lat="50.44452" lon="3.13859">
        <ele>32</ele>
        <time>2025-05-25T14:26:34Z</time>
      </trkpt>
      <trkpt lat="50.44658" lon="3.1391">
        <ele>31</ele>
        <time>2025-05-25T14:27:23Z</time>
      </trkpt>
      <trkpt lat="50.44942" lon="3.13958">
        <ele>32</ele>
        <time>2025-05-25T14:28:30Z</time>
      </trkpt>
      <trkpt lat="50.45062" lon="3.13569">
        <ele>35</ele>
        <time>2025-05-25T14:29:34Z</time>
      </trkpt>
      <trkpt lat="50.45296" lon="3.13644">
        <ele>36</ele>
        <time>2025-05-25T14:30:30Z</time>
      </trkpt>
      <trkpt lat="50.45465" lon="3.1368">
        <ele>39</ele>
        <time>2025-05-25T14:31:10Z</time>
      </trkpt>
      <trkpt lat="50.45655" lon="3.13683">
        <ele>42</ele>
        <time>2025-05-25T14:31:54Z</time>
      </trkpt>
      <trkpt lat="50.45753" lon="3.13682">
        <ele>42</ele>
        <time>2025-05-25T14:32:17Z</time>
      </trkpt>
      <trkpt lat="50.45657" lon="3.13678">
        <ele>43</ele>
        <time>2025-05-25T14:32:39Z</time>
      </trkpt>
    </trkseg>
  </trk>
</gpx>